createdAt,value
2019-02-22T00:00:23.145Z,0.00
2019-02-22T00:01:23.139Z,0.00
2019-02-22T00:02:23.132Z,0.00
2019-02-22T00:03:23.127Z,0.00
2019-02-22T00:04:23.119Z,0.00
2019-02-22T00:05:23.113Z,0.00
2019-02-22T00:06:23.101Z,0.00
2019-02-22T00:07:23.101Z,0.00
2019-02-22T00:08:23.098Z,0.00
2019-02-22T00:09:23.085Z,0.00
2019-02-22T00:10:23.079Z,0.00
2019-02-22T00:11:23.114Z,0.00
2019-02-22T00:12:23.063Z,0.00
2019-02-22T00:13:23.061Z,0.00
2019-02-22T00:14:23.054Z,0.00
2019-02-22T00:15:23.047Z,0.00
2019-02-22T00:16:23.215Z,0.00
2019-02-22T00:17:23.038Z,0.00
2019-02-22T00:18:23.026Z,0.00
2019-02-22T00:19:23.020Z,0.00
2019-02-22T00:20:23.013Z,0.00
2019-02-22T00:21:23.007Z,0.00
2019-02-22T00:22:22.999Z,0.00
2019-02-22T00:23:22.993Z,0.00
2019-02-22T00:24:22.987Z,0.00
2019-02-22T00:25:22.983Z,0.00
2019-02-22T00:26:22.972Z,0.00
2019-02-22T00:27:22.966Z,0.00
2019-02-22T00:28:22.970Z,0.00
2019-02-22T00:29:22.951Z,0.00
2019-02-22T00:30:22.946Z,0.00
2019-02-22T00:31:22.941Z,0.00
2019-02-22T00:32:22.935Z,0.00
2019-02-22T00:33:22.927Z,0.00
2019-02-22T00:34:22.952Z,0.00
2019-02-22T00:35:22.921Z,0.00
2019-02-22T00:36:22.983Z,0.00
2019-02-22T00:37:22.955Z,0.00
2019-02-22T00:38:22.889Z,0.00
2019-02-22T00:39:22.885Z,0.00
2019-02-22T00:40:22.890Z,0.00
2019-02-22T00:41:22.873Z,0.00
2019-02-22T00:42:22.868Z,0.00
2019-02-22T00:43:22.863Z,0.00
2019-02-22T00:44:22.854Z,0.00
2019-02-22T00:45:22.846Z,0.00
2019-02-22T00:46:22.847Z,0.00
2019-02-22T00:47:22.830Z,0.00
2019-02-22T00:48:22.825Z,0.00
2019-02-22T00:49:22.819Z,0.00
2019-02-22T00:50:22.811Z,0.00
2019-02-22T00:51:22.805Z,0.00
2019-02-22T00:52:22.800Z,0.00
2019-02-22T00:53:22.790Z,0.00
2019-02-22T00:54:22.789Z,0.00
2019-02-22T00:55:22.791Z,0.00
2019-02-22T00:56:22.772Z,0.00
2019-02-22T00:57:22.768Z,0.00
2019-02-22T00:58:22.758Z,0.00
2019-02-22T00:59:22.747Z,0.00
2019-02-22T01:00:22.742Z,0.00
2019-02-22T01:01:22.736Z,0.00
2019-02-22T01:02:22.731Z,0.00
2019-02-22T01:03:22.723Z,0.00
2019-02-22T01:04:22.714Z,0.00
2019-02-22T01:05:22.710Z,0.00
2019-02-22T01:06:25.306Z,0.00
2019-02-22T01:07:22.695Z,0.00
2019-02-22T01:08:22.685Z,0.00
2019-02-22T01:09:22.683Z,0.00
2019-02-22T01:10:30.670Z,0.00
2019-02-22T01:11:22.737Z,0.00
2019-02-22T01:12:22.662Z,0.00
2019-02-22T01:13:22.653Z,0.00
2019-02-22T01:14:22.646Z,0.00
2019-02-22T01:15:22.639Z,0.00
2019-02-22T01:16:22.631Z,0.00
2019-02-22T01:17:22.624Z,0.00
2019-02-22T01:18:22.614Z,0.00
2019-02-22T01:19:22.611Z,0.00
2019-02-22T01:20:22.604Z,0.00
2019-02-22T01:21:22.598Z,0.00
2019-02-22T01:22:22.586Z,0.00
2019-02-22T01:23:22.582Z,0.00
2019-02-22T01:24:22.577Z,0.00
2019-02-22T01:25:22.568Z,0.00
2019-02-22T01:26:22.558Z,0.00
2019-02-22T01:27:22.552Z,0.00
2019-02-22T01:28:22.543Z,0.00
2019-02-22T01:29:22.529Z,0.00
2019-02-22T01:30:22.527Z,0.00
2019-02-22T01:31:22.522Z,0.00
2019-02-22T01:32:22.516Z,0.00
2019-02-22T01:33:22.511Z,0.00
2019-02-22T01:34:22.503Z,0.00
2019-02-22T01:35:22.493Z,0.00
2019-02-22T01:36:22.487Z,0.00
2019-02-22T01:37:22.473Z,0.00
2019-02-22T01:38:22.472Z,0.00
2019-02-22T01:39:22.465Z,0.00
2019-02-22T01:40:22.456Z,0.00
2019-02-22T01:41:22.450Z,0.00
2019-02-22T01:42:22.450Z,0.00
2019-02-22T01:43:22.434Z,0.00
2019-02-22T01:44:22.430Z,0.00
2019-02-22T01:45:22.423Z,0.00
2019-02-22T01:46:22.409Z,0.00
2019-02-22T01:47:22.405Z,0.00
2019-02-22T01:48:22.397Z,0.00
2019-02-22T01:49:22.390Z,0.00
2019-02-22T01:50:22.383Z,0.00
2019-02-22T01:51:22.366Z,0.00
2019-02-22T01:52:22.372Z,0.00
2019-02-22T01:53:22.365Z,0.00
2019-02-22T01:54:22.363Z,0.00
2019-02-22T01:55:22.346Z,0.00
2019-02-22T01:56:22.380Z,0.00
2019-02-22T01:57:22.332Z,0.00
2019-02-22T01:58:22.321Z,0.00
2019-02-22T01:59:22.313Z,0.00
2019-02-22T02:00:22.306Z,0.00
2019-02-22T02:01:22.297Z,0.00
2019-02-22T02:02:22.289Z,0.00
2019-02-22T02:03:22.283Z,0.00
2019-02-22T02:04:22.275Z,0.00
2019-02-22T02:05:22.267Z,0.00
2019-02-22T02:06:22.265Z,0.00
2019-02-22T02:07:22.256Z,0.00
2019-02-22T02:08:22.246Z,0.00
2019-02-22T02:09:22.240Z,0.00
2019-02-22T02:10:22.230Z,0.00
2019-02-22T02:11:22.225Z,0.00
2019-02-22T02:12:22.216Z,0.00
2019-02-22T02:13:22.203Z,0.00
2019-02-22T02:14:22.202Z,0.00
2019-02-22T02:15:22.192Z,0.00
2019-02-22T02:16:22.186Z,0.00
2019-02-22T02:17:22.180Z,0.00
2019-02-22T02:18:22.167Z,0.00
2019-02-22T02:19:22.159Z,0.00
2019-02-22T02:20:22.213Z,0.00
2019-02-22T02:21:22.146Z,0.00
2019-02-22T02:22:22.141Z,0.00
2019-02-22T02:23:22.130Z,0.00
2019-02-22T02:24:22.130Z,0.00
2019-02-22T02:25:22.114Z,0.00
2019-02-22T02:26:22.106Z,0.00
2019-02-22T02:27:22.094Z,0.00
2019-02-22T02:28:22.092Z,0.00
2019-02-22T02:29:22.083Z,0.00
2019-02-22T02:30:22.103Z,0.00
2019-02-22T02:31:22.081Z,0.00
2019-02-22T02:32:22.060Z,0.00
2019-02-22T02:33:22.055Z,0.00
2019-02-22T02:34:22.048Z,0.00
2019-02-22T02:35:22.037Z,0.00
2019-02-22T02:36:22.028Z,0.00
2019-02-22T02:37:22.031Z,0.00
2019-02-22T02:38:22.014Z,0.00
2019-02-22T02:39:22.007Z,0.00
2019-02-22T02:40:22.003Z,0.00
2019-02-22T02:41:21.992Z,0.00
2019-02-22T02:42:21.971Z,0.00
2019-02-22T02:43:21.978Z,0.00
2019-02-22T02:44:21.965Z,0.00
2019-02-22T02:45:21.962Z,0.00
2019-02-22T02:46:21.948Z,0.00
2019-02-22T02:47:21.940Z,0.00
2019-02-22T02:48:21.928Z,0.00
2019-02-22T02:49:21.926Z,0.00
2019-02-22T02:50:21.950Z,0.00
2019-02-22T02:51:21.909Z,0.00
2019-02-22T02:52:21.908Z,0.00
2019-02-22T02:53:21.895Z,0.00
2019-02-22T02:54:21.878Z,0.00
2019-02-22T02:55:21.877Z,0.00
2019-02-22T02:56:21.872Z,0.00
2019-02-22T02:57:21.867Z,0.00
2019-02-22T02:58:21.894Z,0.00
2019-02-22T02:59:21.849Z,0.00
2019-02-22T03:00:21.839Z,0.00
2019-02-22T03:01:21.834Z,0.00
2019-02-22T03:02:21.819Z,0.00
2019-02-22T03:03:21.815Z,0.00
2019-02-22T03:04:21.807Z,0.00
2019-02-22T03:05:21.799Z,0.00
2019-02-22T03:06:21.794Z,0.00
2019-02-22T03:07:21.789Z,0.00
2019-02-22T03:08:21.782Z,0.00
2019-02-22T03:09:21.769Z,0.00
2019-02-22T03:10:21.760Z,0.00
2019-02-22T03:11:21.825Z,0.00
2019-02-22T03:12:21.751Z,0.00
2019-02-22T03:13:21.739Z,0.00
2019-02-22T03:14:21.732Z,0.00
2019-02-22T03:15:21.723Z,0.00
2019-02-22T03:16:21.709Z,0.00
2019-02-22T03:17:21.709Z,0.00
2019-02-22T03:18:21.715Z,0.00
2019-02-22T03:19:21.691Z,0.00
2019-02-22T03:20:21.683Z,0.00
2019-02-22T03:21:21.675Z,0.00
2019-02-22T03:22:21.680Z,0.00
2019-02-22T03:23:21.662Z,0.00
2019-02-22T03:24:21.652Z,0.00
2019-02-22T03:25:21.644Z,0.00
2019-02-22T03:26:21.636Z,0.00
2019-02-22T03:27:21.629Z,0.00
2019-02-22T03:28:21.621Z,0.00
2019-02-22T03:29:21.618Z,0.00
2019-02-22T03:30:21.611Z,0.00
2019-02-22T03:31:21.610Z,0.00
2019-02-22T03:32:21.594Z,0.00
2019-02-22T03:33:21.587Z,0.00
2019-02-22T03:34:21.609Z,0.00
2019-02-22T03:35:21.568Z,0.00
2019-02-22T03:36:21.615Z,0.00
2019-02-22T03:37:21.555Z,0.00
2019-02-22T03:38:21.548Z,0.00
2019-02-22T03:39:21.539Z,0.00
2019-02-22T03:40:21.531Z,0.00
2019-02-22T03:41:32.420Z,0.00
2019-02-22T03:42:21.516Z,0.00
2019-02-22T03:43:21.510Z,0.00
2019-02-22T03:44:21.507Z,0.00
2019-02-22T03:45:21.494Z,0.00
2019-02-22T03:46:21.487Z,0.00
2019-02-22T03:47:21.479Z,0.00
2019-02-22T03:48:21.472Z,0.00
2019-02-22T03:49:21.471Z,0.00
2019-02-22T03:50:21.458Z,0.00
2019-02-22T03:51:21.444Z,0.00
2019-02-22T03:52:21.445Z,0.00
2019-02-22T03:53:21.437Z,0.00
2019-02-22T03:54:21.423Z,0.00
2019-02-22T03:55:21.420Z,0.00
2019-02-22T03:56:21.413Z,0.00
2019-02-22T03:57:21.406Z,0.00
2019-02-22T03:58:21.398Z,0.00
2019-02-22T03:59:21.388Z,0.00
2019-02-22T04:00:21.384Z,0.00
2019-02-22T04:01:21.377Z,0.00
2019-02-22T04:02:21.373Z,0.00
2019-02-22T04:03:21.361Z,0.00
2019-02-22T04:04:21.354Z,0.00
2019-02-22T04:05:21.348Z,0.00
2019-02-22T04:06:21.340Z,0.00
2019-02-22T04:07:21.332Z,0.00
2019-02-22T04:08:21.327Z,0.00
2019-02-22T04:09:21.319Z,0.00
2019-02-22T04:10:21.309Z,0.00
2019-02-22T04:11:21.303Z,0.00
2019-02-22T04:12:21.300Z,0.00
2019-02-22T04:13:21.287Z,0.00
2019-02-22T04:14:21.279Z,0.00
2019-02-22T04:15:21.272Z,0.00
2019-02-22T04:16:21.273Z,0.00
2019-02-22T04:17:21.260Z,0.00
2019-02-22T04:18:21.257Z,0.00
2019-02-22T04:19:21.246Z,0.00
2019-02-22T04:20:21.239Z,0.00
2019-02-22T04:21:21.230Z,0.00
2019-02-22T04:22:21.222Z,0.00
2019-02-22T04:23:21.219Z,0.00
2019-02-22T04:24:21.211Z,0.00
2019-02-22T04:25:21.203Z,0.00
2019-02-22T04:26:21.884Z,0.00
2019-02-22T04:27:22.530Z,0.00
2019-02-22T04:28:21.181Z,0.00
2019-02-22T04:29:21.174Z,0.00
2019-02-22T04:30:21.163Z,0.00
2019-02-22T04:31:21.161Z,0.00
2019-02-22T04:32:21.155Z,0.00
2019-02-22T04:33:21.153Z,0.00
2019-02-22T04:34:21.137Z,0.00
2019-02-22T04:35:21.130Z,0.00
2019-02-22T04:36:21.121Z,0.00
2019-02-22T04:37:21.117Z,0.00
2019-02-22T04:38:21.116Z,0.00
2019-02-22T04:39:21.104Z,0.00
2019-02-22T04:40:21.098Z,0.00
2019-02-22T04:41:21.089Z,0.00
2019-02-22T04:42:21.079Z,0.00
2019-02-22T04:43:21.072Z,0.00
2019-02-22T04:44:21.068Z,0.00
2019-02-22T04:45:21.060Z,0.00
2019-02-22T04:46:21.051Z,0.00
2019-02-22T04:47:21.045Z,0.00
2019-02-22T04:48:21.038Z,0.00
2019-02-22T04:49:21.031Z,0.00
2019-02-22T04:50:21.022Z,0.00
2019-02-22T04:51:21.015Z,0.00
2019-02-22T04:52:21.011Z,0.00
2019-02-22T04:53:21.000Z,0.00
2019-02-22T04:54:20.995Z,0.00
2019-02-22T04:55:20.987Z,0.00
2019-02-22T04:56:20.982Z,0.00
2019-02-22T04:57:20.974Z,0.00
2019-02-22T04:58:21.107Z,0.00
2019-02-22T04:59:20.959Z,0.00
2019-02-22T05:00:20.955Z,0.00
2019-02-22T05:01:20.948Z,0.00
2019-02-22T05:02:20.938Z,0.00
2019-02-22T05:03:20.932Z,0.00
2019-02-22T05:04:20.926Z,0.00
2019-02-22T05:05:20.917Z,0.00
2019-02-22T05:06:20.910Z,0.00
2019-02-22T05:07:20.904Z,0.00
2019-02-22T05:08:20.896Z,0.00
2019-02-22T05:09:20.891Z,0.00
2019-02-22T05:10:20.895Z,0.00
2019-02-22T05:11:20.878Z,0.00
2019-02-22T05:12:20.868Z,0.00
2019-02-22T05:13:20.859Z,0.00
2019-02-22T05:14:20.856Z,0.00
2019-02-22T05:15:20.875Z,0.00
2019-02-22T05:16:20.840Z,0.00
2019-02-22T05:17:20.943Z,0.00
2019-02-22T05:18:20.825Z,0.00
2019-02-22T05:19:20.819Z,0.00
2019-02-22T05:20:20.811Z,0.00
2019-02-22T05:21:20.808Z,0.00
2019-02-22T05:22:20.793Z,0.00
2019-02-22T05:23:20.791Z,0.00
2019-02-22T05:24:20.783Z,0.00
2019-02-22T05:25:20.777Z,0.00
2019-02-22T05:26:20.780Z,0.00
2019-02-22T05:27:20.760Z,0.00
2019-02-22T05:28:20.769Z,0.00
2019-02-22T05:29:20.744Z,0.00
2019-02-22T05:30:20.742Z,0.00
2019-02-22T05:31:20.733Z,0.00
2019-02-22T05:32:20.727Z,0.00
2019-02-22T05:33:20.727Z,0.00
2019-02-22T05:34:20.708Z,0.00
2019-02-22T05:35:20.701Z,0.00
2019-02-22T05:36:20.808Z,0.00
2019-02-22T05:37:20.696Z,0.00
2019-02-22T05:38:20.682Z,0.00
2019-02-22T05:39:20.705Z,0.00
2019-02-22T05:40:20.666Z,0.00
2019-02-22T05:41:20.660Z,0.00
2019-02-22T05:42:23.195Z,0.00
2019-02-22T05:43:20.646Z,0.00
2019-02-22T05:44:20.640Z,0.00
2019-02-22T05:45:20.634Z,0.00
2019-02-22T05:46:20.622Z,0.00
2019-02-22T05:47:20.617Z,0.00
2019-02-22T05:48:20.610Z,0.00
2019-02-22T05:49:22.386Z,0.00
2019-02-22T05:50:20.592Z,0.00
2019-02-22T05:51:20.591Z,0.00
2019-02-22T05:52:20.584Z,0.00
2019-02-22T05:53:20.572Z,0.00
2019-02-22T05:54:20.565Z,4.00
2019-02-22T05:55:20.560Z,4.00
2019-02-22T05:56:20.555Z,4.00
2019-02-22T05:57:20.541Z,4.00
2019-02-22T05:58:20.536Z,8.00
2019-02-22T05:59:20.529Z,4.00
2019-02-22T06:00:20.523Z,4.00
2019-02-22T06:01:20.516Z,8.00
2019-02-22T06:02:20.508Z,12.00
2019-02-22T06:03:20.501Z,12.00
2019-02-22T06:04:20.491Z,16.00
2019-02-22T06:05:20.493Z,24.00
2019-02-22T06:06:20.475Z,28.00
2019-02-22T06:07:20.509Z,36.00
2019-02-22T06:08:20.469Z,44.00
2019-02-22T06:09:20.480Z,52.00
2019-02-22T06:10:20.445Z,60.00
2019-02-22T06:11:20.442Z,72.00
2019-02-22T06:12:20.434Z,72.00
2019-02-22T06:13:20.427Z,80.00
2019-02-22T06:14:20.416Z,84.00
2019-02-22T06:15:20.408Z,84.00
2019-02-22T06:16:20.417Z,88.00
2019-02-22T06:17:20.394Z,92.00
2019-02-22T06:18:22.943Z,100.00
2019-02-22T06:19:20.391Z,112.00
2019-02-22T06:20:20.372Z,116.00
2019-02-22T06:21:20.365Z,120.00
2019-02-22T06:22:29.138Z,132.00
2019-02-22T06:23:20.359Z,140.00
2019-02-22T06:24:20.402Z,156.00
2019-02-22T06:25:20.341Z,180.00
2019-02-22T06:26:20.317Z,204.00
2019-02-22T06:27:20.315Z,228.00
2019-02-22T06:28:20.312Z,256.00
2019-02-22T06:29:20.304Z,276.00
2019-02-22T06:30:20.294Z,288.00
2019-02-22T06:31:20.291Z,272.00
2019-02-22T06:32:20.288Z,260.00
2019-02-22T06:33:20.276Z,272.00
2019-02-22T06:34:20.261Z,284.00
2019-02-22T06:35:20.258Z,300.00
2019-02-22T06:36:20.250Z,308.00
2019-02-22T06:37:20.244Z,344.00
2019-02-22T06:38:20.236Z,380.00
2019-02-22T06:39:20.233Z,412.00
2019-02-22T06:40:20.221Z,432.00
2019-02-22T06:41:20.211Z,444.00
2019-02-22T06:42:20.208Z,452.00
2019-02-22T06:43:20.198Z,460.00
2019-02-22T06:44:20.199Z,476.00
2019-02-22T06:45:20.188Z,476.00
2019-02-22T06:46:20.177Z,496.00
2019-02-22T06:47:22.771Z,536.00
2019-02-22T06:48:20.155Z,580.00
2019-02-22T06:49:20.145Z,640.00
2019-02-22T06:50:20.145Z,692.00
2019-02-22T06:51:20.139Z,684.00
2019-02-22T06:52:20.135Z,692.00
2019-02-22T06:53:20.126Z,728.00
2019-02-22T06:54:20.112Z,772.00
2019-02-22T06:55:20.108Z,792.00
2019-02-22T06:56:20.102Z,712.00
2019-02-22T06:57:20.092Z,720.00
2019-02-22T06:58:20.086Z,784.00
2019-02-22T06:59:20.080Z,796.00
2019-02-22T07:00:20.071Z,868.00
2019-02-22T07:01:20.061Z,904.00
2019-02-22T07:02:20.055Z,864.00
2019-02-22T07:03:20.049Z,820.00
2019-02-22T07:04:20.043Z,872.00
2019-02-22T07:05:20.041Z,1012.00
2019-02-22T07:06:20.025Z,1144.00
2019-02-22T07:07:20.024Z,1312.00
2019-02-22T07:08:20.014Z,1420.00
2019-02-22T07:09:20.003Z,1504.00
2019-02-22T07:10:19.999Z,1576.00
2019-02-22T07:11:19.990Z,1676.00
2019-02-22T07:12:19.983Z,1848.00
2019-02-22T07:13:19.977Z,2004.00
2019-02-22T07:14:19.971Z,2088.00
2019-02-22T07:15:19.962Z,2120.00
2019-02-22T07:16:19.962Z,2168.00
2019-02-22T07:17:19.947Z,2180.00
2019-02-22T07:18:19.940Z,2036.00
2019-02-22T07:19:19.933Z,1836.00
2019-02-22T07:20:19.926Z,1828.00
2019-02-22T07:21:19.923Z,1936.00
2019-02-22T07:22:19.904Z,2000.00
2019-02-22T07:23:19.931Z,2004.00
2019-02-22T07:24:19.895Z,2000.00
2019-02-22T07:25:19.889Z,2088.00
2019-02-22T07:26:19.881Z,2156.00
2019-02-22T07:27:19.871Z,2216.00
2019-02-22T07:28:19.867Z,2308.00
2019-02-22T07:29:22.118Z,2244.00
2019-02-22T07:30:19.853Z,2404.00
2019-02-22T07:31:19.842Z,2824.00
2019-02-22T07:32:19.838Z,3128.00
2019-02-22T07:33:19.857Z,3464.00
2019-02-22T07:34:19.824Z,3768.00
2019-02-22T07:35:19.817Z,3928.00
2019-02-22T07:36:19.810Z,3916.00
2019-02-22T07:37:19.803Z,3908.00
2019-02-22T07:38:19.797Z,4288.00
2019-02-22T07:39:27.857Z,4888.00
2019-02-22T07:40:20.157Z,5472.00
2019-02-22T07:41:19.775Z,6128.00
2019-02-22T07:42:19.766Z,6492.00
2019-02-22T07:43:19.760Z,6352.00
2019-02-22T07:44:19.743Z,6124.00
2019-02-22T07:45:19.747Z,6032.00
2019-02-22T07:46:19.738Z,5772.00
2019-02-22T07:47:19.812Z,5388.00
2019-02-22T07:48:19.727Z,5184.00
2019-02-22T07:49:19.722Z,5104.00
2019-02-22T07:50:19.712Z,5144.00
2019-02-22T07:51:19.707Z,5244.00
2019-02-22T07:52:19.697Z,5440.00
2019-02-22T07:53:19.693Z,5764.00
2019-02-22T07:54:19.684Z,6016.00
2019-02-22T07:55:19.682Z,6124.00
2019-02-22T07:56:19.673Z,6228.00
2019-02-22T07:57:19.670Z,6472.00
2019-02-22T07:58:19.660Z,6664.00
2019-02-22T07:59:19.656Z,7016.00
2019-02-22T08:00:19.646Z,7628.00
2019-02-22T08:01:19.643Z,8420.00
2019-02-22T08:02:19.633Z,9524.00
2019-02-22T08:03:19.633Z,11356.00
2019-02-22T08:04:19.622Z,13156.00
2019-02-22T08:05:19.615Z,15112.00
2019-02-22T08:06:19.607Z,16544.00
2019-02-22T08:07:19.602Z,17600.00
2019-02-22T08:08:19.597Z,18368.00
2019-02-22T08:09:19.591Z,18432.00
2019-02-22T08:10:19.584Z,17440.00
2019-02-22T08:11:19.579Z,15668.00
2019-02-22T08:12:19.573Z,13984.00
2019-02-22T08:13:20.253Z,13620.00
2019-02-22T08:14:19.565Z,13688.00
2019-02-22T08:15:19.560Z,12836.00
2019-02-22T08:16:19.554Z,11824.00
2019-02-22T08:17:19.545Z,11084.00
2019-02-22T08:18:19.541Z,10972.00
2019-02-22T08:19:19.575Z,11108.00
2019-02-22T08:20:19.531Z,11664.00
2019-02-22T08:21:19.525Z,11988.00
2019-02-22T08:22:20.767Z,11460.00
2019-02-22T08:23:19.515Z,9136.00
2019-02-22T08:24:19.500Z,7500.00
2019-02-22T08:25:19.506Z,6760.00
2019-02-22T08:26:19.497Z,5972.00
2019-02-22T08:27:19.498Z,6100.00
2019-02-22T08:28:19.490Z,6684.00
2019-02-22T08:29:19.484Z,6964.00
2019-02-22T08:30:19.477Z,6944.00
2019-02-22T08:31:19.473Z,6752.00
2019-02-22T08:32:19.469Z,7188.00
2019-02-22T08:33:19.455Z,7748.00
2019-02-22T08:34:19.455Z,7504.00
2019-02-22T08:35:19.451Z,6348.00
2019-02-22T08:36:19.449Z,5696.00
2019-02-22T08:37:19.485Z,6112.00
2019-02-22T08:38:19.435Z,6832.00
2019-02-22T08:39:19.428Z,7016.00
2019-02-22T08:40:19.427Z,7100.00
2019-02-22T08:41:19.418Z,7084.00
2019-02-22T08:42:19.414Z,7124.00
2019-02-22T08:43:30.806Z,7644.00
2019-02-22T08:44:19.403Z,8352.00
2019-02-22T08:45:19.396Z,8732.00
2019-02-22T08:46:19.388Z,8880.00
2019-02-22T08:47:19.388Z,8872.00
2019-02-22T08:48:19.375Z,8612.00
2019-02-22T08:49:19.374Z,8496.00
2019-02-22T08:50:19.359Z,8664.00
2019-02-22T08:51:19.358Z,8512.00
2019-02-22T08:52:19.356Z,8172.00
2019-02-22T08:53:19.349Z,8416.00
2019-02-22T08:54:19.342Z,9000.00
2019-02-22T08:55:19.337Z,8904.00
2019-02-22T08:56:19.330Z,8756.00
2019-02-22T08:57:19.324Z,8756.00
2019-02-22T08:58:19.318Z,8656.00
2019-02-22T08:59:19.310Z,8580.00
2019-02-22T09:00:19.307Z,8300.00
2019-02-22T09:01:19.305Z,7700.00
2019-02-22T09:02:19.298Z,7296.00
2019-02-22T09:03:19.290Z,7304.00
2019-02-22T09:04:19.283Z,7484.00
2019-02-22T09:05:19.281Z,7720.00
2019-02-22T09:06:19.271Z,8208.00
2019-02-22T09:07:19.267Z,8948.00
2019-02-22T09:08:19.262Z,9188.00
2019-02-22T09:09:19.259Z,8408.00
2019-02-22T09:10:19.250Z,7804.00
2019-02-22T09:11:19.242Z,7748.00
2019-02-22T09:12:19.236Z,7648.00
2019-02-22T09:13:19.235Z,7460.00
2019-02-22T09:14:19.294Z,7572.00
2019-02-22T09:15:19.220Z,8068.00
2019-02-22T09:16:19.208Z,8256.00
2019-02-22T09:17:19.207Z,7728.00
2019-02-22T09:18:19.200Z,7308.00
2019-02-22T09:19:19.194Z,7628.00
2019-02-22T09:20:19.188Z,7924.00
2019-02-22T09:21:19.187Z,7608.00
2019-02-22T09:22:22.867Z,7080.00
2019-02-22T09:23:19.174Z,6872.00
2019-02-22T09:24:19.166Z,7316.00
2019-02-22T09:25:19.187Z,7716.00
2019-02-22T09:26:19.155Z,7904.00
2019-02-22T09:27:19.199Z,8428.00
2019-02-22T09:28:19.139Z,9072.00
2019-02-22T09:29:19.138Z,9212.00
2019-02-22T09:30:19.129Z,9076.00
2019-02-22T09:31:19.119Z,9048.00
2019-02-22T09:32:19.116Z,9064.00
2019-02-22T09:33:19.110Z,8840.00
2019-02-22T09:34:19.114Z,8416.00
2019-02-22T09:35:19.105Z,7856.00
2019-02-22T09:36:19.094Z,7204.00
2019-02-22T09:37:19.088Z,6572.00
2019-02-22T09:38:19.082Z,6080.00
2019-02-22T09:39:19.075Z,6408.00
2019-02-22T09:40:19.072Z,7112.00
2019-02-22T09:41:19.062Z,7412.00
2019-02-22T09:42:19.058Z,8244.00
2019-02-22T09:43:19.056Z,8436.00
2019-02-22T09:44:19.065Z,8356.00
2019-02-22T09:45:19.043Z,8332.00
2019-02-22T09:46:19.030Z,8800.00
2019-02-22T09:47:19.030Z,9740.00
2019-02-22T09:48:19.023Z,10624.00
2019-02-22T09:49:19.018Z,10572.00
2019-02-22T09:50:19.012Z,11176.00
2019-02-22T09:51:19.010Z,10068.00
2019-02-22T09:52:19.003Z,11280.00
2019-02-22T09:53:18.997Z,13084.00
2019-02-22T09:54:18.991Z,13520.00
2019-02-22T09:55:18.985Z,12400.00
2019-02-22T09:56:18.983Z,9828.00
2019-02-22T09:57:18.969Z,7784.00
2019-02-22T09:58:18.971Z,7500.00
2019-02-22T09:59:18.967Z,8916.00
2019-02-22T10:00:18.960Z,9280.00
2019-02-22T10:01:18.957Z,10200.00
2019-02-22T10:02:18.948Z,11748.00
2019-02-22T10:03:18.941Z,12764.00
2019-02-22T10:04:18.936Z,12696.00
2019-02-22T10:05:18.936Z,12184.00
2019-02-22T10:06:18.927Z,11108.00
2019-02-22T10:07:18.923Z,10316.00
2019-02-22T10:08:18.918Z,10124.00
2019-02-22T10:09:18.925Z,9864.00
2019-02-22T10:10:18.915Z,9536.00
2019-02-22T10:11:18.904Z,9800.00
2019-02-22T10:12:18.900Z,10588.00
2019-02-22T10:13:18.896Z,11272.00
2019-02-22T10:14:18.890Z,10616.00
2019-02-22T10:15:18.881Z,10916.00
2019-02-22T10:16:18.880Z,11256.00
2019-02-22T10:17:21.527Z,11644.00
2019-02-22T10:18:18.868Z,12372.00
2019-02-22T10:19:18.873Z,12664.00
2019-02-22T10:20:18.860Z,12632.00
2019-02-22T10:21:18.854Z,12312.00
2019-02-22T10:22:18.848Z,12608.00
2019-02-22T10:23:18.853Z,12932.00
2019-02-22T10:24:18.846Z,14000.00
2019-02-22T10:25:18.836Z,15596.00
2019-02-22T10:26:21.292Z,17316.00
2019-02-22T10:27:18.827Z,18784.00
2019-02-22T10:28:18.820Z,17284.00
2019-02-22T10:29:18.815Z,16140.00
2019-02-22T10:30:18.808Z,14864.00
2019-02-22T10:31:18.803Z,14384.00
2019-02-22T10:32:18.792Z,13928.00
2019-02-22T10:33:18.803Z,14172.00
2019-02-22T10:34:18.798Z,15408.00
2019-02-22T10:35:18.787Z,17136.00
2019-02-22T10:36:18.829Z,19232.00
2019-02-22T10:37:18.777Z,17452.00
2019-02-22T10:38:18.769Z,19328.00
2019-02-22T10:39:18.767Z,21280.00
2019-02-22T10:40:18.764Z,22656.00
2019-02-22T10:41:18.759Z,23296.00
2019-02-22T10:42:18.756Z,24256.00
2019-02-22T10:43:18.749Z,25120.00
2019-02-22T10:44:18.748Z,31456.00
2019-02-22T10:45:18.751Z,29536.00
2019-02-22T10:46:18.739Z,27936.00
2019-02-22T10:47:18.735Z,21312.00
2019-02-22T10:48:18.732Z,18720.00
2019-02-22T10:49:18.724Z,16148.00
2019-02-22T10:50:18.726Z,14644.00
2019-02-22T10:51:18.725Z,15936.00
2019-02-22T10:52:18.721Z,17036.00
2019-02-22T10:53:18.728Z,16872.00
2019-02-22T10:54:18.717Z,16072.00
2019-02-22T10:55:18.714Z,16472.00
2019-02-22T10:56:18.714Z,16760.00
2019-02-22T10:57:18.819Z,17056.00
2019-02-22T10:58:18.706Z,17568.00
2019-02-22T10:59:18.694Z,18080.00
2019-02-22T11:00:18.703Z,17696.00
2019-02-22T11:01:18.700Z,17376.00
2019-02-22T11:02:18.693Z,16928.00
2019-02-22T11:03:18.698Z,16816.00
2019-02-22T11:04:18.692Z,16620.00
2019-02-22T11:05:18.702Z,15592.00
2019-02-22T11:06:18.688Z,14176.00
2019-02-22T11:07:20.939Z,14000.00
2019-02-22T11:08:18.678Z,13796.00
2019-02-22T11:09:18.674Z,14556.00
2019-02-22T11:10:18.671Z,17248.00
2019-02-22T11:11:18.668Z,18816.00
2019-02-22T11:12:18.657Z,19680.00
2019-02-22T11:13:21.322Z,18080.00
2019-02-22T11:14:28.479Z,16500.00
2019-02-22T11:15:18.655Z,16236.00
2019-02-22T11:16:18.652Z,16756.00
2019-02-22T11:17:18.650Z,16752.00
2019-02-22T11:18:18.647Z,16244.00
2019-02-22T11:19:18.634Z,16288.00
2019-02-22T11:20:18.639Z,16716.00
2019-02-22T11:21:18.632Z,17344.00
2019-02-22T11:22:18.634Z,17260.00
2019-02-22T11:23:18.628Z,16424.00
2019-02-22T11:24:20.017Z,13952.00
2019-02-22T11:25:18.623Z,14420.00
2019-02-22T11:26:18.609Z,15928.00
2019-02-22T11:27:18.615Z,18592.00
2019-02-22T11:28:18.616Z,19296.00
2019-02-22T11:29:18.608Z,19712.00
2019-02-22T11:30:18.605Z,19776.00
2019-02-22T11:31:18.599Z,19904.00
2019-02-22T11:32:18.599Z,19264.00
2019-02-22T11:33:18.596Z,17332.00
2019-02-22T11:34:18.594Z,16984.00
2019-02-22T11:35:18.591Z,17028.00
2019-02-22T11:36:18.584Z,17264.00
2019-02-22T11:37:18.583Z,17760.00
2019-02-22T11:38:18.578Z,15692.00
2019-02-22T11:39:18.578Z,13672.00
2019-02-22T11:40:18.574Z,13584.00
2019-02-22T11:41:18.571Z,14884.00
2019-02-22T11:42:18.565Z,15940.00
2019-02-22T11:43:18.563Z,16832.00
2019-02-22T11:44:18.560Z,23104.00
2019-02-22T11:45:18.556Z,27104.00
2019-02-22T11:46:18.552Z,25056.00
2019-02-22T11:47:18.556Z,29600.00
2019-02-22T11:48:18.553Z,27584.00
2019-02-22T11:49:18.551Z,29216.00
2019-02-22T11:50:18.534Z,28320.00
2019-02-22T11:51:18.541Z,25472.00
2019-02-22T11:52:18.537Z,20928.00
2019-02-22T11:53:18.538Z,16704.00
2019-02-22T11:54:18.533Z,16800.00
2019-02-22T11:55:18.533Z,16960.00
2019-02-22T11:56:18.533Z,17120.00
2019-02-22T11:57:20.918Z,17120.00
2019-02-22T11:58:18.527Z,16748.00
2019-02-22T11:59:18.531Z,16140.00
2019-02-22T12:00:18.528Z,15232.00
2019-02-22T12:01:18.524Z,14032.00
2019-02-22T12:02:18.525Z,12656.00
2019-02-22T12:03:24.664Z,11688.00
2019-02-22T12:04:18.519Z,11140.00
2019-02-22T12:05:18.526Z,10568.00
2019-02-22T12:06:18.514Z,10292.00
2019-02-22T12:07:18.515Z,10136.00
2019-02-22T12:08:18.507Z,9928.00
2019-02-22T12:09:18.506Z,9580.00
2019-02-22T12:10:18.500Z,8920.00
2019-02-22T12:11:18.489Z,8536.00
2019-02-22T12:12:18.495Z,8204.00
2019-02-22T12:13:18.491Z,7956.00
2019-02-22T12:14:18.484Z,7968.00
2019-02-22T12:15:18.484Z,7996.00
2019-02-22T12:16:18.480Z,7900.00
2019-02-22T12:17:18.480Z,7680.00
2019-02-22T12:18:18.471Z,6992.00
2019-02-22T12:19:18.468Z,6344.00
2019-02-22T12:20:18.475Z,6220.00
2019-02-22T12:21:18.459Z,6268.00
2019-02-22T12:22:18.460Z,6156.00
2019-02-22T12:23:18.442Z,5684.00
2019-02-22T12:24:18.446Z,5024.00
2019-02-22T12:25:18.453Z,4620.00
2019-02-22T12:26:18.435Z,4620.00
2019-02-22T12:27:18.434Z,4864.00
2019-02-22T12:28:18.428Z,4976.00
2019-02-22T12:29:18.426Z,4792.00
2019-02-22T12:30:18.416Z,5248.00
2019-02-22T12:31:18.412Z,5712.00
2019-02-22T12:32:18.412Z,6000.00
2019-02-22T12:33:18.399Z,6124.00
2019-02-22T12:34:18.397Z,6148.00
2019-02-22T12:35:18.394Z,6148.00
2019-02-22T12:36:18.385Z,6212.00